地図

経路データ

SID SEASON NUMBER BASIN SUBBASIN NAME ISO_TIME NATURE LAT LON WMO_WIND WMO_PRES WMO_AGENCY TRACK_TYPE DIST2LAND LANDFALL IFLAG USA_AGENCY USA_ATCF_ID USA_LAT USA_LON USA_RECORD USA_STATUS USA_WIND USA_PRES USA_SSHS USA_R34_NE USA_R34_SE USA_R34_SW USA_R34_NW USA_R50_NE USA_R50_SE USA_R50_SW USA_R50_NW USA_R64_NE USA_R64_SE USA_R64_SW USA_R64_NW USA_POCI USA_ROCI USA_RMW USA_EYE TOKYO_LAT TOKYO_LON TOKYO_GRADE TOKYO_WIND TOKYO_PRES TOKYO_R50_DIR TOKYO_R50_LONG TOKYO_R50_SHORT TOKYO_R30_DIR TOKYO_R30_LONG TOKYO_R30_SHORT TOKYO_LAND CMA_LAT CMA_LON CMA_CAT CMA_WIND CMA_PRES HKO_LAT HKO_LON HKO_CAT HKO_WIND HKO_PRES NEWDELHI_LAT NEWDELHI_LON NEWDELHI_GRADE NEWDELHI_WIND NEWDELHI_PRES NEWDELHI_CI NEWDELHI_DP NEWDELHI_POCI REUNION_LAT REUNION_LON REUNION_TYPE REUNION_WIND REUNION_PRES REUNION_TNUM REUNION_CI REUNION_RMW REUNION_R34_NE REUNION_R34_SE REUNION_R34_SW REUNION_R34_NW REUNION_R50_NE REUNION_R50_SE REUNION_R50_SW REUNION_R50_NW REUNION_R64_NE REUNION_R64_SE REUNION_R64_SW REUNION_R64_NW BOM_LAT BOM_LON BOM_TYPE BOM_WIND BOM_PRES BOM_TNUM BOM_CI BOM_RMW BOM_R34_NE BOM_R34_SE BOM_R34_SW BOM_R34_NW BOM_R50_NE BOM_R50_SE BOM_R50_SW BOM_R50_NW BOM_R64_NE BOM_R64_SE BOM_R64_SW BOM_R64_NW BOM_ROCI BOM_POCI BOM_EYE BOM_POS_METHOD BOM_PRES_METHOD NADI_LAT NADI_LON NADI_CAT NADI_WIND NADI_PRES WELLINGTON_LAT WELLINGTON_LON WELLINGTON_WIND WELLINGTON_PRES DS824_LAT DS824_LON DS824_STAGE DS824_WIND DS824_PRES TD9636_LAT TD9636_LON TD9636_STAGE TD9636_WIND TD9636_PRES TD9635_LAT TD9635_LON TD9635_WIND TD9635_PRES TD9635_ROCI NEUMANN_LAT NEUMANN_LON NEUMANN_CLASS NEUMANN_WIND NEUMANN_PRES MLC_LAT MLC_LON MLC_CLASS MLC_WIND MLC_PRES USA_GUST BOM_GUST BOM_GUST_PER REUNION_GUST REUNION_GUST_PER USA_SEAHGT USA_SEARAD_NE USA_SEARAD_SE USA_SEARAD_SW USA_SEARAD_NW STORM_SPEED STORM_DIR
1940246N12156 1940 57 WP MM NOT_NAMED 1940-09-01 21:00:00 NR 12.3000 156.300 main 1783 1779 __________O___ -1 12.3000 156.300 7 5 304
1940246N12156 1940 57 WP MM NOT_NAMED 1940-09-02 00:00:00 NR 12.4487 156.075 main 1786 1786 __________P___ -1 12.4487 156.075 7 6 307
1940246N12156 1940 57 WP MM NOT_NAMED 1940-09-02 03:00:00 NR 12.6378 155.850 main 1797 1797 __________P___ -1 12.6378 155.850 7 6 316
1940246N12156 1940 57 WP MM NOT_NAMED 1940-09-02 06:00:00 NR 12.9080 155.625 main 1823 1823 __________P___ -1 12.9080 155.625 7 8 326
1940246N12156 1940 57 WP MM NOT_NAMED 1940-09-02 09:00:00 NR 13.3000 155.400 main 1860 1860 __________O___ -1 13.3000 155.400 7 10 335
1940246N12156 1940 57 WP MM NOT_NAMED 1940-09-02 12:00:00 NR 13.8342 155.174 main 1908 1908 __________P___ -1 13.8342 155.174 7 12 339
1940246N12156 1940 57 WP MM NOT_NAMED 1940-09-02 15:00:00 NR 14.4497 154.938 main 1965 1965 __________P___ -1 14.4497 154.938 7 13 339
1940246N12156 1940 57 WP MM NOT_NAMED 1940-09-02 18:00:00 NR 15.0654 154.683 main 2037 2037 __________P___ -1 15.0654 154.683 7 13 336
1940246N12156 1940 57 WP MM NOT_NAMED 1940-09-02 21:00:00 NR 15.6000 154.400 main 2085 2085 __________O___ -1 15.6000 154.400 7 10 325
1940246N12156 1940 57 WP MM NOT_NAMED 1940-09-03 00:00:00 NR 15.9232 154.066 main 2113 2111 __________P___ -1 15.9232 154.066 7 9 310
1940246N12156 1940 57 WP MM NOT_NAMED 1940-09-03 03:00:00 NR 16.1602 153.706 main 2139 2137 __________P___ -1 16.1602 153.706 7 8 303
1940246N12156 1940 57 WP MM NOT_NAMED 1940-09-03 06:00:00 NR 16.3670 153.344 main 2155 2154 __________P___ -1 16.3670 153.344 7 8 303
1940246N12156 1940 57 WP MM NOT_NAMED 1940-09-03 09:00:00 NR 16.6000 153.000 main 2174 2173 __________O___ -1 16.6000 153.000 7 9 312
1940246N12156 1940 57 WP MM NOT_NAMED 1940-09-03 12:00:00 NR 16.9389 152.691 main 2204 2204 __________P___ -1 16.9389 152.691 7 9 321
1940246N12156 1940 57 WP MM NOT_NAMED 1940-09-03 15:00:00 NR 17.3123 152.405 main 2241 2241 __________P___ -1 17.3123 152.405 7 9 326
1940246N12156 1940 57 WP MM NOT_NAMED 1940-09-03 18:00:00 NR 17.7046 152.141 main 2268 2219 __________P___ -1 17.7046 152.141 7 9 329
1940246N12156 1940 57 WP MM NOT_NAMED 1940-09-03 21:00:00 NR 18.1000 151.900 main 2219 2175 __________O___ -1 18.1000 151.900 7 9 335
1940246N12156 1940 57 WP MM NOT_NAMED 1940-09-04 00:00:00 NR 18.5065 151.742 main 2169 2125 __________P___ -1 18.5065 151.742 7 9 340
1940246N12156 1940 57 WP MM NOT_NAMED 1940-09-04 03:00:00 NR 18.9084 151.596 main 2125 2076 __________P___ -1 18.9084 151.596 7 8 338
1940246N12156 1940 57 WP MM NOT_NAMED 1940-09-04 06:00:00 NR 19.2812 151.402 main 2076 2031 __________P___ -1 19.2812 151.402 7 8 326
1940246N12156 1940 57 WP MM NOT_NAMED 1940-09-04 09:00:00 NR 19.6000 151.100 main 2031 1991 __________O___ -1 19.6000 151.100 7 9 306
1940246N12156 1940 57 WP MM NOT_NAMED 1940-09-04 12:00:00 NR 19.8042 150.638 main 1986 1950 __________P___ -1 19.8042 150.638 7 10 290
1940246N12156 1940 57 WP MM NOT_NAMED 1940-09-04 15:00:00 NR 19.9575 150.063 main 1941 1896 __________P___ -1 19.9575 150.063 7 12 285
1940246N12156 1940 57 WP MM NOT_NAMED 1940-09-04 18:00:00 NR 20.1070 149.406 main 1896 1843 __________P___ -1 20.1070 149.406 7 13 285
1940246N12156 1940 57 WP MM NOT_NAMED 1940-09-04 21:00:00 NR 20.3000 148.700 main 1843 1792 __________O___ -1 20.3000 148.700 7 14 286
1940246N12156 1940 57 WP MM NOT_NAMED 1940-09-05 00:00:00 NR 20.5079 147.931 main 1788 1728 __________P___ -1 20.5079 147.931 7 15 288
1940246N12156 1940 57 WP MM NOT_NAMED 1940-09-05 03:00:00 NR 20.7776 147.131 main 1724 1666 __________P___ -1 20.7776 147.131 7 16 294
1940246N12156 1940 57 WP MM NOT_NAMED 1940-09-05 06:00:00 NR 21.1581 146.365 main 1655 1578 __________P___ -1 21.1581 146.365 7 16 305
1940246N12156 1940 57 WP MM NOT_NAMED 1940-09-05 09:00:00 NR 21.7000 145.700 main 1578 1480 __________O___ -1 21.7000 145.700 7 18 324
1940246N12156 1940 57 WP MM NOT_NAMED 1940-09-05 12:00:00 NR 22.5748 145.246 main 1466 1361 __________P___ -1 22.5748 145.246 7 20 338
1940246N12156 1940 57 WP MM NOT_NAMED 1940-09-05 15:00:00 NR 23.5916 144.891 main 1350 1245 __________P___ -1 23.5916 144.891 7 21 343
1940246N12156 1940 57 WP MM NOT_NAMED 1940-09-05 18:00:00 NR 24.5878 144.565 main 1235 1137 __________P___ -1 24.5878 144.565 7 19 341
1940246N12156 1940 57 WP MM NOT_NAMED 1940-09-05 21:00:00 NR 25.4000 144.200 main 1137 1078 __________O___ -1 25.4000 144.200 7 15 328
1940246N12156 1940 57 WP MM NOT_NAMED 1940-09-06 00:00:00 NR 25.8453 143.682 main 1078 1031 __________P___ -1 25.8453 143.682 7 12 305
1940246N12156 1940 57 WP MM NOT_NAMED 1940-09-06 03:00:00 NR 26.0855 143.120 main 1028 1004 __________P___ -1 26.0855 143.120 7 11 288
1940246N12156 1940 57 WP MM NOT_NAMED 1940-09-06 06:00:00 NR 26.1828 142.548 main 1001 985 __________P___ -1 26.1828 142.548 7 10 277
1940246N12156 1940 57 WP MM NOT_NAMED 1940-09-06 09:00:00 NR 26.2000 142.000 main 985 972 __________O___ -1 26.2000 142.000 7 10 273
1940246N12156 1940 57 WP MM NOT_NAMED 1940-09-06 12:00:00 NR 26.2274 141.475 main 972 946 __________P___ -1 26.2274 141.475 7 9 270
1940246N12156 1940 57 WP MM NOT_NAMED 1940-09-06 15:00:00 NR 26.1950 140.986 main 946 926 __________P___ -1 26.1950 140.986 7 8 264
1940246N12156 1940 57 WP MM NOT_NAMED 1940-09-06 18:00:00 NR 26.1401 140.553 main 936 918 __________P___ -1 26.1401 140.553 7 7 262
1940246N12156 1940 57 WP MM NOT_NAMED 1940-09-06 21:00:00 NR 26.1000 140.200 main 918 909 __________O___ -1 26.1000 140.200 7 5 266
1940246N12156 1940 57 WP MM NOT_NAMED 1940-09-07 00:00:00 NR 26.0991 139.950 main 905 901 __________P___ -1 26.0991 139.950 7 4 274
1940246N12156 1940 57 WP MM NOT_NAMED 1940-09-07 03:00:00 NR 26.1239 139.775 main 901 882 __________P___ -1 26.1239 139.775 7 3 287
1940246N12156 1940 57 WP MM NOT_NAMED 1940-09-07 06:00:00 NR 26.1868 139.637 main 882 868 __________P___ -1 26.1868 139.637 7 3 305
1940246N12156 1940 57 WP MM NOT_NAMED 1940-09-07 09:00:00 NR 26.3000 139.500 main 868 840 __________O___ -1 26.3000 139.500 7 4 313
1940246N12156 1940 57 WP MM NOT_NAMED 1940-09-07 12:00:00 NR 26.4830 139.283 main 840 812 __________P___ -1 26.4830 139.283 7 6 316
1940246N12156 1940 57 WP MM NOT_NAMED 1940-09-07 15:00:00 NR 26.7127 139.063 main 812 783 __________P___ -1 26.7127 139.063 7 6 322
1940246N12156 1940 57 WP MM NOT_NAMED 1940-09-07 18:00:00 NR 26.9611 138.862 main 773 745 __________P___ -1 26.9611 138.862 7 6 326
1940246N12156 1940 57 WP MM NOT_NAMED 1940-09-07 21:00:00 NR 27.2000 138.700 main 745 721 __________O___ -1 27.2000 138.700 7 5 330
1940246N12156 1940 57 WP MM NOT_NAMED 1940-09-08 00:00:00 NR 27.3648 138.602 main 721 707 __________P___ -1 27.3648 138.602 7 3 337
1940246N12156 1940 57 WP MM NOT_NAMED 1940-09-08 03:00:00 NR 27.5198 138.547 main 707 686 __________P___ -1 27.5198 138.547 7 3 346
1940246N12156 1940 57 WP MM NOT_NAMED 1940-09-08 06:00:00 NR 27.6899 138.518 main 686 665 __________P___ -1 27.6899 138.518 7 4 355
1940246N12156 1940 57 WP MM NOT_NAMED 1940-09-08 09:00:00 NR 27.9000 138.500 main 665 634 __________O___ -1 27.9000 138.500 7 5 0
1940246N12156 1940 57 WP MM NOT_NAMED 1940-09-08 12:00:00 NR 28.2224 138.492 main 634 593 __________P___ -1 28.2224 138.492 7 7 0
1940246N12156 1940 57 WP MM NOT_NAMED 1940-09-08 15:00:00 NR 28.5798 138.487 main 593 563 __________P___ -1 28.5798 138.487 7 7 360
1940246N12156 1940 57 WP MM NOT_NAMED 1940-09-08 18:00:00 NR 28.9224 138.464 main 563 529 __________P___ -1 28.9224 138.464 7 6 352
1940246N12156 1940 57 WP MM NOT_NAMED 1940-09-08 21:00:00 NR 29.2000 138.400 main 529 509 __________O___ -1 29.2000 138.400 7 5 348
1940246N12156 1940 57 WP MM NOT_NAMED 1940-09-09 00:00:00 NR 29.3617 138.353 main 509 505 __________P___ -1 29.3617 138.353 7 3 332
1940246N12156 1940 57 WP MM NOT_NAMED 1940-09-09 03:00:00 NR 29.4525 138.253 main 495 486 __________P___ -1 29.4525 138.253 7 3 296
1940246N12156 1940 57 WP MM NOT_NAMED 1940-09-09 06:00:00 NR 29.4922 138.050 main 486 470 __________P___ -1 29.4922 138.050 7 5 276
1940246N12156 1940 57 WP MM NOT_NAMED 1940-09-09 09:00:00 NR 29.5000 137.700 main 470 454 __________O___ -1 29.5000 137.700 7 8 270
1940246N12156 1940 57 WP MM NOT_NAMED 1940-09-09 12:00:00 NR 29.4898 137.129 main 452 440 __________P___ -1 29.4898 137.129 7 11 268
1940246N12156 1940 57 WP MM NOT_NAMED 1940-09-09 15:00:00 NR 29.4533 136.418 main 438 438 __________P___ -1 29.4533 136.418 7 13 267
1940246N12156 1940 57 WP MM NOT_NAMED 1940-09-09 18:00:00 NR 29.4147 135.648 main 443 402 __________P___ -1 29.4147 135.648 7 13 268
1940246N12156 1940 57 WP MM NOT_NAMED 1940-09-09 21:00:00 NR 29.4000 134.900 main 402 356 __________O___ -1 29.4000 134.900 7 12 268
1940246N12156 1940 57 WP MM NOT_NAMED 1940-09-10 00:00:00 NR 29.3752 134.303 main 356 320 __________P___ -1 29.3752 134.303 7 10 269
1940246N12156 1940 57 WP MM NOT_NAMED 1940-09-10 03:00:00 NR 29.3898 133.738 main 313 273 __________P___ -1 29.3898 133.738 7 10 276
1940246N12156 1940 57 WP MM NOT_NAMED 1940-09-10 06:00:00 NR 29.4846 133.180 main 273 221 __________P___ -1 29.4846 133.180 7 10 287
1940246N12156 1940 57 WP MM NOT_NAMED 1940-09-10 09:00:00 NR 29.7000 132.600 main 221 152 __________O___ -1 29.7000 132.600 7 13 300
1940246N12156 1940 57 WP MM NOT_NAMED 1940-09-10 12:00:00 NR 30.1284 131.883 main 152 65 __________P___ -1 30.1284 131.883 7 16 308
1940246N12156 1940 57 WP MM NOT_NAMED 1940-09-10 15:00:00 NR 30.6654 131.147 main 50 0 __________P___ -1 30.6654 131.147 7 16 312
1940246N12156 1940 57 WP MM NOT_NAMED 1940-09-10 18:00:00 NR 31.2193 130.461 main 9 0 __________P___ -1 31.2193 130.461 7 15 314
1940246N12156 1940 57 WP MM NOT_NAMED 1940-09-10 21:00:00 NR 31.7000 129.900 main 30 30 __________O___ -1 31.7000 129.900 7 12 305
1940246N12156 1940 57 WP MM NOT_NAMED 1940-09-11 00:00:00 NR 31.8958 129.340 main 84 84 __________P___ -1 31.8958 129.340 7 9 292
1940246N12156 1940 57 WP MM NOT_NAMED 1940-09-11 03:00:00 NR 32.0237 128.947 main 100 93 __________P___ -1 32.0237 128.947 7 5 304
1940246N12156 1940 57 WP MM NOT_NAMED 1940-09-11 06:00:00 NR 32.1899 128.831 main 95 57 __________P___ -1 32.1899 128.831 7 5 15
1940246N12156 1940 57 WP MM NOT_NAMED 1940-09-11 09:00:00 NR 32.5000 129.100 main 57 0 __________O___ -1 32.5000 129.100 7 14 42
1940246N12156 1940 57 WP MM NOT_NAMED 1940-09-11 12:00:00 NR 33.1965 129.915 main 0 0 __________P___ -1 33.1965 129.915 7 23 48
1940246N12156 1940 57 WP MM NOT_NAMED 1940-09-11 15:00:00 NR 34.0166 131.120 main 9 0 __________P___ -1 34.0166 131.120 7 27 53
1940246N12156 1940 57 WP MM NOT_NAMED 1940-09-11 18:00:00 NR 34.8014 132.520 main 0 0 __________P___ -1 34.8014 132.520 7 27 59
1940246N12156 1940 57 WP MM NOT_NAMED 1940-09-11 21:00:00 NR 35.4000 133.900 main 0 0 __________O___ -1 35.4000 133.900 7 23 67
1940246N12156 1940 57 WP MM NOT_NAMED 1940-09-12 00:00:00 NR 35.7082 135.080 main 0 0 __________P___ -1 35.7082 135.080 7 18 78
1940246N12156 1940 57 WP MM NOT_NAMED 1940-09-12 03:00:00 NR 35.7737 136.066 main 0 0 __________P___ -1 35.7737 136.066 7 15 91
1940246N12156 1940 57 WP MM NOT_NAMED 1940-09-12 06:00:00 NR 35.6779 136.918 main 0 0 __________P___ -1 35.6779 136.918 7 14 102
1940246N12156 1940 57 WP MM NOT_NAMED 1940-09-12 09:00:00 NR 35.5000 137.700 main 0 __________O___ -1 35.5000 137.700 7 13 106

デジタル台風データ・検索

IBTrACS Databaseについて

本データベースは、米国NOAAが公開する1842年以降の世界の熱帯低気圧のベストトラックデータアーカイブInternational Best Track Archive for Climate Stewardship (IBTrACS)を、ウェブで閲覧しやすい形式に変換したものです。

最終更新日:2021-10-27